sensor_id;sensor_type;location;lat;lon;timestamp;temperature;humidity
78467;SHT31;67759;51.972;5.650;2023-02-25T00:02:34;6.0;68.4
78467;SHT31;67759;51.972;5.650;2023-02-25T00:05:07;6.0;68.3
78467;SHT31;67759;51.972;5.650;2023-02-25T00:07:38;6.0;68.3
78467;SHT31;67759;51.972;5.650;2023-02-25T00:10:11;6.0;68.4
78467;SHT31;67759;51.972;5.650;2023-02-25T00:12:42;6.0;68.6
78467;SHT31;67759;51.972;5.650;2023-02-25T00:15:18;6.0;68.3
78467;SHT31;67759;51.972;5.650;2023-02-25T00:17:48;6.1;68.0
78467;SHT31;67759;51.972;5.650;2023-02-25T00:20:19;6.2;67.6
78467;SHT31;67759;51.972;5.650;2023-02-25T00:22:49;6.2;67.4
78467;SHT31;67759;51.972;5.650;2023-02-25T00:25:19;6.2;67.1
78467;SHT31;67759;51.972;5.650;2023-02-25T00:27:49;6.2;66.9
78467;SHT31;67759;51.972;5.650;2023-02-25T00:30:19;6.2;67.3
78467;SHT31;67759;51.972;5.650;2023-02-25T00:32:50;6.2;67.3
78467;SHT31;67759;51.972;5.650;2023-02-25T00:35:20;6.2;67.2
78467;SHT31;67759;51.972;5.650;2023-02-25T00:37:52;6.2;67.5
78467;SHT31;67759;51.972;5.650;2023-02-25T00:40:21;6.1;67.4
78467;SHT31;67759;51.972;5.650;2023-02-25T00:42:51;6.1;67.9
78467;SHT31;67759;51.972;5.650;2023-02-25T00:45:21;6.1;67.9
78467;SHT31;67759;51.972;5.650;2023-02-25T00:47:51;6.1;68.0
78467;SHT31;67759;51.972;5.650;2023-02-25T00:50:20;6.1;68.0
78467;SHT31;67759;51.972;5.650;2023-02-25T00:52:50;6.2;67.5
78467;SHT31;67759;51.972;5.650;2023-02-25T00:55:20;6.2;67.6
78467;SHT31;67759;51.972;5.650;2023-02-25T00:57:49;6.2;67.7
78467;SHT31;67759;51.972;5.650;2023-02-25T01:00:20;6.2;67.6
78467;SHT31;67759;51.972;5.650;2023-02-25T01:02:50;6.3;68.1
78467;SHT31;67759;51.972;5.650;2023-02-25T01:05:20;6.3;67.5
78467;SHT31;67759;51.972;5.650;2023-02-25T01:07:50;6.3;67.7
78467;SHT31;67759;51.972;5.650;2023-02-25T01:10:22;6.3;67.5
78467;SHT31;67759;51.972;5.650;2023-02-25T01:12:52;6.4;67.7
78467;SHT31;67759;51.972;5.650;2023-02-25T01:15:22;6.4;67.4
78467;SHT31;67759;51.972;5.650;2023-02-25T01:17:51;6.4;67.5
78467;SHT31;67759;51.972;5.650;2023-02-25T01:20:21;6.5;66.6
78467;SHT31;67759;51.972;5.650;2023-02-25T01:22:50;6.5;67.0
78467;SHT31;67759;51.972;5.650;2023-02-25T01:25:21;6.5;66.5
78467;SHT31;67759;51.972;5.650;2023-02-25T01:27:55;6.5;67.3
78467;SHT31;67759;51.972;5.650;2023-02-25T01:30:26;6.6;66.9
78467;SHT31;67759;51.972;5.650;2023-02-25T01:32:55;6.6;67.0
78467;SHT31;67759;51.972;5.650;2023-02-25T01:35:25;6.6;66.8
78467;SHT31;67759;51.972;5.650;2023-02-25T01:37:57;6.6;66.8
78467;SHT31;67759;51.972;5.650;2023-02-25T01:40:26;6.6;67.2
78467;SHT31;67759;51.972;5.650;2023-02-25T01:43:00;6.7;67.2
78467;SHT31;67759;51.972;5.650;2023-02-25T01:45:33;6.7;67.0
78467;SHT31;67759;51.972;5.650;2023-02-25T01:48:14;6.7;66.6
78467;SHT31;67759;51.972;5.650;2023-02-25T01:50:53;6.8;66.3
78467;SHT31;67759;51.972;5.650;2023-02-25T01:53:27;6.8;65.7
78467;SHT31;67759;51.972;5.650;2023-02-25T01:56:00;6.8;65.8
78467;SHT31;67759;51.972;5.650;2023-02-25T01:58:32;6.8;65.7
78467;SHT31;67759;51.972;5.650;2023-02-25T02:01:06;6.8;65.3
78467;SHT31;67759;51.972;5.650;2023-02-25T02:03:39;6.8;65.4
78467;SHT31;67759;51.972;5.650;2023-02-25T02:06:10;6.7;65.5
78467;SHT31;67759;51.972;5.650;2023-02-25T02:08:43;6.7;65.9
78467;SHT31;67759;51.972;5.650;2023-02-25T02:11:16;6.7;66.2
78467;SHT31;67759;51.972;5.650;2023-02-25T02:13:53;6.6;66.2
78467;SHT31;67759;51.972;5.650;2023-02-25T02:16:39;6.6;66.2
78467;SHT31;67759;51.972;5.650;2023-02-25T02:19:23;6.6;66.1
78467;SHT31;67759;51.972;5.650;2023-02-25T02:22:06;6.6;66.1
78467;SHT31;67759;51.972;5.650;2023-02-25T02:26:57;6.6;66.3
78467;SHT31;67759;51.972;5.650;2023-02-25T02:30:17;6.5;66.7
78467;SHT31;67759;51.972;5.650;2023-02-25T02:33:01;6.6;66.9
78467;SHT31;67759;51.972;5.650;2023-02-25T02:35:37;6.6;66.7
78467;SHT31;67759;51.972;5.650;2023-02-25T02:38:22;6.6;66.5
78467;SHT31;67759;51.972;5.650;2023-02-25T02:41:02;6.6;66.5
78467;SHT31;67759;51.972;5.650;2023-02-25T02:43:40;6.6;66.9
78467;SHT31;67759;51.972;5.650;2023-02-25T02:46:14;6.6;66.2
78467;SHT31;67759;51.972;5.650;2023-02-25T02:48:51;6.6;66.4
78467;SHT31;67759;51.972;5.650;2023-02-25T02:51:28;6.6;66.8
78467;SHT31;67759;51.972;5.650;2023-02-25T02:54:03;6.6;66.7
78467;SHT31;67759;51.972;5.650;2023-02-25T02:56:37;6.6;66.7
78467;SHT31;67759;51.972;5.650;2023-02-25T02:59:12;6.6;66.8
78467;SHT31;67759;51.972;5.650;2023-02-25T03:01:45;6.6;66.9
78467;SHT31;67759;51.972;5.650;2023-02-25T03:04:23;6.6;66.9
78467;SHT31;67759;51.972;5.650;2023-02-25T03:06:58;6.6;66.9
78467;SHT31;67759;51.972;5.650;2023-02-25T03:09:37;6.6;66.8
78467;SHT31;67759;51.972;5.650;2023-02-25T03:12:08;6.6;66.5
78467;SHT31;67759;51.972;5.650;2023-02-25T03:14:39;6.6;66.5
78467;SHT31;67759;51.972;5.650;2023-02-25T03:17:12;6.6;66.4
78467;SHT31;67759;51.972;5.650;2023-02-25T03:19:45;6.6;66.5
78467;SHT31;67759;51.972;5.650;2023-02-25T03:22:22;6.6;66.9
78467;SHT31;67759;51.972;5.650;2023-02-25T03:24:58;6.6;66.7
78467;SHT31;67759;51.972;5.650;2023-02-25T03:27:34;6.6;66.6
78467;SHT31;67759;51.972;5.650;2023-02-25T03:30:11;6.6;66.4
78467;SHT31;67759;51.972;5.650;2023-02-25T03:32:48;6.6;66.4
78467;SHT31;67759;51.972;5.650;2023-02-25T03:35:25;6.6;66.2
78467;SHT31;67759;51.972;5.650;2023-02-25T03:38:00;6.6;66.3
78467;SHT31;67759;51.972;5.650;2023-02-25T03:40:33;6.6;66.4
78467;SHT31;67759;51.972;5.650;2023-02-25T03:43:06;6.6;66.6
78467;SHT31;67759;51.972;5.650;2023-02-25T03:45:40;6.6;66.7
78467;SHT31;67759;51.972;5.650;2023-02-25T03:48:16;6.6;66.7
78467;SHT31;67759;51.972;5.650;2023-02-25T03:50:52;6.6;66.8
78467;SHT31;67759;51.972;5.650;2023-02-25T03:53:26;6.6;66.9
78467;SHT31;67759;51.972;5.650;2023-02-25T03:55:58;6.6;66.7
78467;SHT31;67759;51.972;5.650;2023-02-25T03:58:32;6.6;66.5
78467;SHT31;67759;51.972;5.650;2023-02-25T04:01:06;6.6;66.7
78467;SHT31;67759;51.972;5.650;2023-02-25T04:03:37;6.6;66.7
78467;SHT31;67759;51.972;5.650;2023-02-25T04:06:06;6.7;66.6
78467;SHT31;67759;51.972;5.650;2023-02-25T04:08:37;6.7;67.0
78467;SHT31;67759;51.972;5.650;2023-02-25T04:11:07;6.8;66.5
78467;SHT31;67759;51.972;5.650;2023-02-25T04:13:37;6.9;66.7
78467;SHT31;67759;51.972;5.650;2023-02-25T04:16:08;7.0;65.6
78467;SHT31;67759;51.972;5.650;2023-02-25T04:18:37;7.1;65.8
78467;SHT31;67759;51.972;5.650;2023-02-25T04:21:08;7.1;65.4
78467;SHT31;67759;51.972;5.650;2023-02-25T04:23:38;7.2;65.0
78467;SHT31;67759;51.972;5.650;2023-02-25T04:26:08;7.2;64.9
78467;SHT31;67759;51.972;5.650;2023-02-25T04:28:39;7.2;65.2
78467;SHT31;67759;51.972;5.650;2023-02-25T04:31:09;7.1;65.0
78467;SHT31;67759;51.972;5.650;2023-02-25T04:33:38;7.0;65.2
78467;SHT31;67759;51.972;5.650;2023-02-25T04:36:24;7.0;65.0
78467;SHT31;67759;51.972;5.650;2023-02-25T04:38:55;6.9;64.9
78467;SHT31;67759;51.972;5.650;2023-02-25T04:41:28;6.9;64.7
78467;SHT31;67759;51.972;5.650;2023-02-25T04:44:00;6.8;64.3
78467;SHT31;67759;51.972;5.650;2023-02-25T04:46:33;6.7;64.6
78467;SHT31;67759;51.972;5.650;2023-02-25T04:49:03;6.6;64.2
78467;SHT31;67759;51.972;5.650;2023-02-25T04:51:34;6.6;64.6
78467;SHT31;67759;51.972;5.650;2023-02-25T04:54:05;6.5;64.9
78467;SHT31;67759;51.972;5.650;2023-02-25T04:56:37;6.4;64.6
78467;SHT31;67759;51.972;5.650;2023-02-25T04:59:07;6.4;64.9
78467;SHT31;67759;51.972;5.650;2023-02-25T05:01:37;6.4;64.7
78467;SHT31;67759;51.972;5.650;2023-02-25T05:04:08;6.3;64.7
78467;SHT31;67759;51.972;5.650;2023-02-25T05:06:38;6.3;64.9
78467;SHT31;67759;51.972;5.650;2023-02-25T05:09:07;6.3;64.9
78467;SHT31;67759;51.972;5.650;2023-02-25T05:11:37;6.3;64.9
78467;SHT31;67759;51.972;5.650;2023-02-25T05:14:07;6.3;64.7
78467;SHT31;67759;51.972;5.650;2023-02-25T05:16:38;6.3;65.2
78467;SHT31;67759;51.972;5.650;2023-02-25T05:19:07;6.3;65.0
78467;SHT31;67759;51.972;5.650;2023-02-25T05:21:39;6.3;65.2
78467;SHT31;67759;51.972;5.650;2023-02-25T05:24:10;6.3;65.0
78467;SHT31;67759;51.972;5.650;2023-02-25T05:26:44;6.4;65.6
78467;SHT31;67759;51.972;5.650;2023-02-25T05:29:14;6.4;65.5
78467;SHT31;67759;51.972;5.650;2023-02-25T05:31:44;6.5;64.7
78467;SHT31;67759;51.972;5.650;2023-02-25T05:34:15;6.6;65.2
78467;SHT31;67759;51.972;5.650;2023-02-25T05:36:45;6.6;65.2
78467;SHT31;67759;51.972;5.650;2023-02-25T05:39:14;6.6;66.0
78467;SHT31;67759;51.972;5.650;2023-02-25T05:41:44;6.6;65.9
78467;SHT31;67759;51.972;5.650;2023-02-25T05:44:15;6.5;65.5
78467;SHT31;67759;51.972;5.650;2023-02-25T05:46:44;6.5;66.3
78467;SHT31;67759;51.972;5.650;2023-02-25T05:49:14;6.5;66.7
78467;SHT31;67759;51.972;5.650;2023-02-25T05:51:44;6.5;67.3
78467;SHT31;67759;51.972;5.650;2023-02-25T05:54:14;6.5;67.7
78467;SHT31;67759;51.972;5.650;2023-02-25T05:56:43;6.5;67.9
78467;SHT31;67759;51.972;5.650;2023-02-25T05:59:15;6.5;67.9
78467;SHT31;67759;51.972;5.650;2023-02-25T06:01:45;6.6;67.5
78467;SHT31;67759;51.972;5.650;2023-02-25T06:04:15;6.6;67.7
78467;SHT31;67759;51.972;5.650;2023-02-25T06:06:45;6.6;67.6
78467;SHT31;67759;51.972;5.650;2023-02-25T06:09:19;6.7;67.4
78467;SHT31;67759;51.972;5.650;2023-02-25T06:11:49;6.7;67.2
78467;SHT31;67759;51.972;5.650;2023-02-25T06:14:19;6.7;67.4
78467;SHT31;67759;51.972;5.650;2023-02-25T06:16:48;6.7;67.3
78467;SHT31;67759;51.972;5.650;2023-02-25T06:19:24;6.8;66.8
78467;SHT31;67759;51.972;5.650;2023-02-25T06:21:55;6.8;66.5
78467;SHT31;67759;51.972;5.650;2023-02-25T06:24:25;6.7;66.7
78467;SHT31;67759;51.972;5.650;2023-02-25T06:26:55;6.7;66.7
78467;SHT31;67759;51.972;5.650;2023-02-25T06:29:25;6.7;66.7
78467;SHT31;67759;51.972;5.650;2023-02-25T06:31:55;6.7;66.7
78467;SHT31;67759;51.972;5.650;2023-02-25T06:34:31;6.7;66.9
78467;SHT31;67759;51.972;5.650;2023-02-25T06:37:01;6.6;66.6
78467;SHT31;67759;51.972;5.650;2023-02-25T06:39:31;6.6;66.7
78467;SHT31;67759;51.972;5.650;2023-02-25T06:42:02;6.6;67.1
78467;SHT31;67759;51.972;5.650;2023-02-25T06:44:31;6.5;67.6
78467;SHT31;67759;51.972;5.650;2023-02-25T06:47:01;6.5;66.7
78467;SHT31;67759;51.972;5.650;2023-02-25T06:49:31;6.5;68.2
78467;SHT31;67759;51.972;5.650;2023-02-25T06:52:00;6.4;68.4
78467;SHT31;67759;51.972;5.650;2023-02-25T06:54:30;6.3;69.5
78467;SHT31;67759;51.972;5.650;2023-02-25T06:57:01;6.3;69.4
78467;SHT31;67759;51.972;5.650;2023-02-25T06:59:31;6.3;68.9
78467;SHT31;67759;51.972;5.650;2023-02-25T07:02:02;6.2;69.3
78467;SHT31;67759;51.972;5.650;2023-02-25T07:04:31;6.2;69.4
78467;SHT31;67759;51.972;5.650;2023-02-25T07:07:01;6.2;69.5
78467;SHT31;67759;51.972;5.650;2023-02-25T07:09:31;6.1;69.2
78467;SHT31;67759;51.972;5.650;2023-02-25T07:12:00;6.1;70.3
78467;SHT31;67759;51.972;5.650;2023-02-25T07:14:30;6.1;70.1
78467;SHT31;67759;51.972;5.650;2023-02-25T07:17:01;6.1;70.2
78467;SHT31;67759;51.972;5.650;2023-02-25T07:19:31;6.1;70.3
78467;SHT31;67759;51.972;5.650;2023-02-25T07:22:01;6.1;70.1
78467;SHT31;67759;51.972;5.650;2023-02-25T07:24:32;6.1;70.8
78467;SHT31;67759;51.972;5.650;2023-02-25T07:27:01;6.2;70.7
78467;SHT31;67759;51.972;5.650;2023-02-25T07:29:31;6.2;70.5
78467;SHT31;67759;51.972;5.650;2023-02-25T07:32:00;6.3;70.4
78467;SHT31;67759;51.972;5.650;2023-02-25T07:34:30;6.3;70.1
78467;SHT31;67759;51.972;5.650;2023-02-25T07:37:00;6.4;70.2
78467;SHT31;67759;51.972;5.650;2023-02-25T07:39:30;6.4;69.8
78467;SHT31;67759;51.972;5.650;2023-02-25T07:41:59;6.5;69.4
78467;SHT31;67759;51.972;5.650;2023-02-25T07:44:29;6.5;69.4
78467;SHT31;67759;51.972;5.650;2023-02-25T07:47:00;6.5;70.2
78467;SHT31;67759;51.972;5.650;2023-02-25T07:49:32;6.5;70.3
78467;SHT31;67759;51.972;5.650;2023-02-25T07:52:02;6.6;70.1
78467;SHT31;67759;51.972;5.650;2023-02-25T07:54:32;6.7;69.8
78467;SHT31;67759;51.972;5.650;2023-02-25T07:57:01;6.7;69.0
78467;SHT31;67759;51.972;5.650;2023-02-25T07:59:32;6.7;69.6
78467;SHT31;67759;51.972;5.650;2023-02-25T08:02:03;6.7;70.0
78467;SHT31;67759;51.972;5.650;2023-02-25T08:04:37;6.7;68.9
78467;SHT31;67759;51.972;5.650;2023-02-25T08:07:06;6.8;69.6
78467;SHT31;67759;51.972;5.650;2023-02-25T08:09:36;6.8;69.4
78467;SHT31;67759;51.972;5.650;2023-02-25T08:12:08;6.8;68.9
78467;SHT31;67759;51.972;5.650;2023-02-25T08:14:38;6.8;69.4
78467;SHT31;67759;51.972;5.650;2023-02-25T08:17:07;6.8;69.7
78467;SHT31;67759;51.972;5.650;2023-02-25T08:19:37;6.9;69.1
78467;SHT31;67759;51.972;5.650;2023-02-25T08:22:08;6.9;68.7
78467;SHT31;67759;51.972;5.650;2023-02-25T08:24:39;6.9;69.2
78467;SHT31;67759;51.972;5.650;2023-02-25T08:27:09;6.9;68.8
78467;SHT31;67759;51.972;5.650;2023-02-25T08:29:39;6.9;69.1
78467;SHT31;67759;51.972;5.650;2023-02-25T08:32:09;6.9;69.9
78467;SHT31;67759;51.972;5.650;2023-02-25T08:34:38;6.9;69.5
78467;SHT31;67759;51.972;5.650;2023-02-25T08:37:10;7.0;69.8
78467;SHT31;67759;51.972;5.650;2023-02-25T08:39:39;7.0;70.1
78467;SHT31;67759;51.972;5.650;2023-02-25T08:42:09;7.0;70.1
78467;SHT31;67759;51.972;5.650;2023-02-25T08:44:43;7.1;69.1
78467;SHT31;67759;51.972;5.650;2023-02-25T08:47:12;7.1;68.6
78467;SHT31;67759;51.972;5.650;2023-02-25T08:49:42;7.1;69.1
78467;SHT31;67759;51.972;5.650;2023-02-25T08:52:13;7.2;69.2
78467;SHT31;67759;51.972;5.650;2023-02-25T08:54:43;7.2;69.4
78467;SHT31;67759;51.972;5.650;2023-02-25T08:57:12;7.3;69.5
78467;SHT31;67759;51.972;5.650;2023-02-25T08:59:42;7.3;69.0
78467;SHT31;67759;51.972;5.650;2023-02-25T09:02:12;7.4;68.8
78467;SHT31;67759;51.972;5.650;2023-02-25T09:04:45;7.5;69.0
78467;SHT31;67759;51.972;5.650;2023-02-25T09:07:15;7.6;67.2
78467;SHT31;67759;51.972;5.650;2023-02-25T09:09:46;7.6;67.0
78467;SHT31;67759;51.972;5.650;2023-02-25T09:12:16;7.7;68.1
78467;SHT31;67759;51.972;5.650;2023-02-25T09:14:45;7.7;68.3
78467;SHT31;67759;51.972;5.650;2023-02-25T09:17:16;7.9;66.5
78467;SHT31;67759;51.972;5.650;2023-02-25T09:19:48;8.0;66.4
78467;SHT31;67759;51.972;5.650;2023-02-25T09:22:17;8.1;65.2
78467;SHT31;67759;51.972;5.650;2023-02-25T09:24:47;8.1;62.8
78467;SHT31;67759;51.972;5.650;2023-02-25T09:27:17;8.2;61.7
78467;SHT31;67759;51.972;5.650;2023-02-25T09:29:48;8.2;61.2
78467;SHT31;67759;51.972;5.650;2023-02-25T09:32:19;8.2;62.5
78467;SHT31;67759;51.972;5.650;2023-02-25T09:34:49;8.2;63.2
78467;SHT31;67759;51.972;5.650;2023-02-25T09:37:19;8.3;63.0
78467;SHT31;67759;51.972;5.650;2023-02-25T09:39:51;8.3;63.4
78467;SHT31;67759;51.972;5.650;2023-02-25T09:42:24;8.4;63.2
78467;SHT31;67759;51.972;5.650;2023-02-25T09:44:59;8.5;62.8
78467;SHT31;67759;51.972;5.650;2023-02-25T09:47:35;8.6;61.5
78467;SHT31;67759;51.972;5.650;2023-02-25T09:50:12;8.7;61.1
78467;SHT31;67759;51.972;5.650;2023-02-25T09:52:55;8.8;58.9
78467;SHT31;67759;51.972;5.650;2023-02-25T09:55:32;8.8;59.2
78467;SHT31;67759;51.972;5.650;2023-02-25T09:58:07;8.8;58.0
78467;SHT31;67759;51.972;5.650;2023-02-25T10:00:45;8.8;56.9
78467;SHT31;67759;51.972;5.650;2023-02-25T10:03:23;8.8;56.7
78467;SHT31;67759;51.972;5.650;2023-02-25T10:06:00;8.8;57.7
78467;SHT31;67759;51.972;5.650;2023-02-25T10:08:39;8.8;56.2
78467;SHT31;67759;51.972;5.650;2023-02-25T10:11:17;8.8;56.6
78467;SHT31;67759;51.972;5.650;2023-02-25T10:13:55;8.8;56.3
78467;SHT31;67759;51.972;5.650;2023-02-25T10:16:40;8.9;56.4
78467;SHT31;67759;51.972;5.650;2023-02-25T10:19:24;8.9;57.3
78467;SHT31;67759;51.972;5.650;2023-02-25T10:22:19;9.1;57.5
78467;SHT31;67759;51.972;5.650;2023-02-25T10:24:56;9.2;56.5
78467;SHT31;67759;51.972;5.650;2023-02-25T10:27:31;9.3;55.3
78467;SHT31;67759;51.972;5.650;2023-02-25T10:30:07;9.3;54.7
78467;SHT31;67759;51.972;5.650;2023-02-25T10:32:42;9.3;54.8
78467;SHT31;67759;51.972;5.650;2023-02-25T10:35:17;9.2;55.6
78467;SHT31;67759;51.972;5.650;2023-02-25T10:37:49;9.2;55.3
78467;SHT31;67759;51.972;5.650;2023-02-25T10:40:22;9.2;54.7
78467;SHT31;67759;51.972;5.650;2023-02-25T10:42:59;9.2;54.5
78467;SHT31;67759;51.972;5.650;2023-02-25T10:45:31;9.1;54.4
78467;SHT31;67759;51.972;5.650;2023-02-25T10:48:05;9.1;53.6
78467;SHT31;67759;51.972;5.650;2023-02-25T10:50:36;9.1;55.3
78467;SHT31;67759;51.972;5.650;2023-02-25T10:53:13;9.1;53.9
78467;SHT31;67759;51.972;5.650;2023-02-25T10:55:50;9.1;56.2
78467;SHT31;67759;51.972;5.650;2023-02-25T10:58:25;9.3;56.1
78467;SHT31;67759;51.972;5.650;2023-02-25T11:00:58;9.5;52.4
78467;SHT31;67759;51.972;5.650;2023-02-25T11:03:32;9.5;52.0
78467;SHT31;67759;51.972;5.650;2023-02-25T11:06:11;9.5;52.0
78467;SHT31;67759;51.972;5.650;2023-02-25T11:08:41;9.5;51.9
78467;SHT31;67759;51.972;5.650;2023-02-25T11:11:16;9.4;51.1
78467;SHT31;67759;51.972;5.650;2023-02-25T11:13:55;9.3;49.3
78467;SHT31;67759;51.972;5.650;2023-02-25T11:16:27;9.2;47.9
78467;SHT31;67759;51.972;5.650;2023-02-25T11:19:01;9.1;48.9
78467;SHT31;67759;51.972;5.650;2023-02-25T11:21:37;8.9;49.7
78467;SHT31;67759;51.972;5.650;2023-02-25T11:24:12;8.9;49.0
78467;SHT31;67759;51.972;5.650;2023-02-25T11:26:45;8.8;49.1
78467;SHT31;67759;51.972;5.650;2023-02-25T11:29:19;8.8;51.0
78467;SHT31;67759;51.972;5.650;2023-02-25T11:31:54;8.8;51.1
78467;SHT31;67759;51.972;5.650;2023-02-25T11:34:28;8.9;52.0
78467;SHT31;67759;51.972;5.650;2023-02-25T11:37:33;8.9;51.5
78467;SHT31;67759;51.972;5.650;2023-02-25T11:40:22;9.0;49.1
78467;SHT31;67759;51.972;5.650;2023-02-25T11:43:16;9.1;49.7
78467;SHT31;67759;51.972;5.650;2023-02-25T11:46:06;9.1;49.7
78467;SHT31;67759;51.972;5.650;2023-02-25T11:48:48;9.2;49.9
78467;SHT31;67759;51.972;5.650;2023-02-25T11:51:23;9.3;50.8
78467;SHT31;67759;51.972;5.650;2023-02-25T11:54:16;9.4;49.5
78467;SHT31;67759;51.972;5.650;2023-02-25T11:56:41;9.4;48.3
78467;SHT31;67759;51.972;5.650;2023-02-25T11:59:32;9.4;46.2
78467;SHT31;67759;51.972;5.650;2023-02-25T12:03:04;9.4;45.2
78467;SHT31;67759;51.972;5.650;2023-02-25T12:05:51;9.4;44.8
78467;SHT31;67759;51.972;5.650;2023-02-25T12:08:41;9.4;47.4
78467;SHT31;67759;51.972;5.650;2023-02-25T12:12:59;9.4;45.2
78467;SHT31;67759;51.972;5.650;2023-02-25T12:15:55;9.5;47.9
78467;SHT31;67759;51.972;5.650;2023-02-25T12:19:07;9.7;41.7
78467;SHT31;67759;51.972;5.650;2023-02-25T12:22:14;9.7;42.3
78467;SHT31;67759;51.972;5.650;2023-02-25T12:25:03;9.8;42.2
78467;SHT31;67759;51.972;5.650;2023-02-25T12:27:59;9.7;42.0
78467;SHT31;67759;51.972;5.650;2023-02-25T12:30:55;9.7;44.1
78467;SHT31;67759;51.972;5.650;2023-02-25T12:33:45;9.7;43.7
78467;SHT31;67759;51.972;5.650;2023-02-25T12:36:36;9.7;42.4
78467;SHT31;67759;51.972;5.650;2023-02-25T12:39:31;9.8;42.9
78467;SHT31;67759;51.972;5.650;2023-02-25T12:42:13;9.9;42.7
78467;SHT31;67759;51.972;5.650;2023-02-25T12:53:40;10.5;38.1
78467;SHT31;67759;51.972;5.650;2023-02-25T12:57:47;10.6;39.2
78467;SHT31;67759;51.972;5.650;2023-02-25T13:01:24;10.6;39.6
78467;SHT31;67759;51.972;5.650;2023-02-25T13:04:03;10.6;40.0
78467;SHT31;67759;51.972;5.650;2023-02-25T13:07:49;10.7;41.1
78467;SHT31;67759;51.972;5.650;2023-02-25T13:11:16;11.0;38.7
78467;SHT31;67759;51.972;5.650;2023-02-25T13:14:40;11.3;39.1
78467;SHT31;67759;51.972;5.650;2023-02-25T13:17:34;11.4;37.9
78467;SHT31;67759;51.972;5.650;2023-02-25T13:20:37;11.4;39.4
78467;SHT31;67759;51.972;5.650;2023-02-25T13:23:42;11.4;37.5
78467;SHT31;67759;51.972;5.650;2023-02-25T13:26:47;11.4;38.9
78467;SHT31;67759;51.972;5.650;2023-02-25T13:29:33;11.3;37.5
78467;SHT31;67759;51.972;5.650;2023-02-25T13:32:21;11.4;40.3
78467;SHT31;67759;51.972;5.650;2023-02-25T13:35:14;11.4;40.3
78467;SHT31;67759;51.972;5.650;2023-02-25T13:37:58;11.4;38.5
78467;SHT31;67759;51.972;5.650;2023-02-25T13:40:48;11.5;39.1
78467;SHT31;67759;51.972;5.650;2023-02-25T13:43:57;11.5;39.7
78467;SHT31;67759;51.972;5.650;2023-02-25T13:46:48;11.5;39.5
78467;SHT31;67759;51.972;5.650;2023-02-25T13:51:28;11.6;39.0
78467;SHT31;67759;51.972;5.650;2023-02-25T13:54:22;11.5;37.5
78467;SHT31;67759;51.972;5.650;2023-02-25T13:57:04;11.4;37.5
78467;SHT31;67759;51.972;5.650;2023-02-25T14:00:02;11.4;39.3
78467;SHT31;67759;51.972;5.650;2023-02-25T14:02:50;11.4;41.7
78467;SHT31;67759;51.972;5.650;2023-02-25T14:05:39;11.4;41.2
78467;SHT31;67759;51.972;5.650;2023-02-25T14:08:26;11.5;36.4
78467;SHT31;67759;51.972;5.650;2023-02-25T14:11:10;11.5;36.3
78467;SHT31;67759;51.972;5.650;2023-02-25T14:14:04;11.5;38.0
78467;SHT31;67759;51.972;5.650;2023-02-25T14:16:51;11.4;36.7
78467;SHT31;67759;51.972;5.650;2023-02-25T14:19:36;11.4;38.6
78467;SHT31;67759;51.972;5.650;2023-02-25T14:22:36;11.2;37.0
78467;SHT31;67759;51.972;5.650;2023-02-25T14:25:26;11.1;38.7
78467;SHT31;67759;51.972;5.650;2023-02-25T14:28:08;11.1;36.7
78467;SHT31;67759;51.972;5.650;2023-02-25T14:30:54;11.1;37.6
78467;SHT31;67759;51.972;5.650;2023-02-25T14:33:48;11.1;39.8
78467;SHT31;67759;51.972;5.650;2023-02-25T14:36:47;11.2;39.7
78467;SHT31;67759;51.972;5.650;2023-02-25T14:39:27;11.3;39.6
78467;SHT31;67759;51.972;5.650;2023-02-25T14:42:10;11.5;40.3
78467;SHT31;67759;51.972;5.650;2023-02-25T14:44:49;11.6;39.1
78467;SHT31;67759;51.972;5.650;2023-02-25T14:47:29;11.6;38.7
78467;SHT31;67759;51.972;5.650;2023-02-25T14:50:09;11.6;39.6
78467;SHT31;67759;51.972;5.650;2023-02-25T14:58:22;11.3;36.1
78467;SHT31;67759;51.972;5.650;2023-02-25T15:01:08;11.2;37.0
78467;SHT31;67759;51.972;5.650;2023-02-25T15:04:01;11.1;36.1
78467;SHT31;67759;51.972;5.650;2023-02-25T15:06:52;11.1;36.6
78467;SHT31;67759;51.972;5.650;2023-02-25T15:09:40;11.0;36.0
78467;SHT31;67759;51.972;5.650;2023-02-25T15:12:42;11.0;38.4
78467;SHT31;67759;51.972;5.650;2023-02-25T15:15:32;11.0;39.2
78467;SHT31;67759;51.972;5.650;2023-02-25T15:18:29;11.0;35.1
78467;SHT31;67759;51.972;5.650;2023-02-25T15:21:32;11.0;34.4
78467;SHT31;67759;51.972;5.650;2023-02-25T15:25:25;11.0;36.7
78467;SHT31;67759;51.972;5.650;2023-02-25T15:27:45;11.0;36.3
78467;SHT31;67759;51.972;5.650;2023-02-25T15:30:18;11.0;36.0
78467;SHT31;67759;51.972;5.650;2023-02-25T15:33:04;10.9;36.8
78467;SHT31;67759;51.972;5.650;2023-02-25T15:35:53;10.8;36.4
78467;SHT31;67759;51.972;5.650;2023-02-25T15:38:40;10.7;34.5
78467;SHT31;67759;51.972;5.650;2023-02-25T15:41:42;10.6;36.2
78467;SHT31;67759;51.972;5.650;2023-02-25T15:44:36;10.5;35.0
78467;SHT31;67759;51.972;5.650;2023-02-25T15:47:26;10.5;38.7
78467;SHT31;67759;51.972;5.650;2023-02-25T15:49:59;10.4;37.8
78467;SHT31;67759;51.972;5.650;2023-02-25T15:52:52;10.4;35.2
78467;SHT31;67759;51.972;5.650;2023-02-25T15:55:34;10.3;36.2
78467;SHT31;67759;51.972;5.650;2023-02-25T15:58:43;10.2;35.7
78467;SHT31;67759;51.972;5.650;2023-02-25T16:01:28;10.2;35.7
78467;SHT31;67759;51.972;5.650;2023-02-25T16:03:59;10.1;36.0
78467;SHT31;67759;51.972;5.650;2023-02-25T16:06:39;10.1;37.9
78467;SHT31;67759;51.972;5.650;2023-02-25T16:09:13;10.1;35.9
78467;SHT31;67759;51.972;5.650;2023-02-25T16:11:46;10.1;36.5
78467;SHT31;67759;51.972;5.650;2023-02-25T16:14:21;10.0;36.5
78467;SHT31;67759;51.972;5.650;2023-02-25T16:16:56;9.9;37.8
78467;SHT31;67759;51.972;5.650;2023-02-25T16:19:29;9.8;38.5
78467;SHT31;67759;51.972;5.650;2023-02-25T16:22:04;9.7;37.3
78467;SHT31;67759;51.972;5.650;2023-02-25T16:24:37;9.6;36.5
78467;SHT31;67759;51.972;5.650;2023-02-25T16:27:15;9.4;37.3
78467;SHT31;67759;51.972;5.650;2023-02-25T16:29:58;9.3;38.3
78467;SHT31;67759;51.972;5.650;2023-02-25T16:32:36;9.2;38.2
78467;SHT31;67759;51.972;5.650;2023-02-25T16:35:13;9.1;39.1
78467;SHT31;67759;51.972;5.650;2023-02-25T16:37:54;9.0;38.5
78467;SHT31;67759;51.972;5.650;2023-02-25T16:40:29;8.8;40.3
78467;SHT31;67759;51.972;5.650;2023-02-25T16:42:59;8.7;39.9
78467;SHT31;67759;51.972;5.650;2023-02-25T16:45:32;8.6;40.9
78467;SHT31;67759;51.972;5.650;2023-02-25T16:48:11;8.5;40.6
78467;SHT31;67759;51.972;5.650;2023-02-25T16:50:43;8.3;41.4
78467;SHT31;67759;51.972;5.650;2023-02-25T16:53:23;8.2;42.3
78467;SHT31;67759;51.972;5.650;2023-02-25T16:55:57;8.1;42.3
78467;SHT31;67759;51.972;5.650;2023-02-25T16:58:28;8.0;41.3
78467;SHT31;67759;51.972;5.650;2023-02-25T17:01:00;7.9;42.6
78467;SHT31;67759;51.972;5.650;2023-02-25T17:03:41;7.8;43.0
78467;SHT31;67759;51.972;5.650;2023-02-25T17:06:14;7.7;42.5
78467;SHT31;67759;51.972;5.650;2023-02-25T17:08:46;7.7;41.6
78467;SHT31;67759;51.972;5.650;2023-02-25T17:11:18;7.6;42.2
78467;SHT31;67759;51.972;5.650;2023-02-25T17:13:51;7.5;42.2
78467;SHT31;67759;51.972;5.650;2023-02-25T17:16:26;7.5;42.5
78467;SHT31;67759;51.972;5.650;2023-02-25T17:19:00;7.4;41.9
78467;SHT31;67759;51.972;5.650;2023-02-25T17:21:33;7.3;45.6
78467;SHT31;67759;51.972;5.650;2023-02-25T17:24:07;7.2;43.6
78467;SHT31;67759;51.972;5.650;2023-02-25T17:26:42;7.2;46.5
78467;SHT31;67759;51.972;5.650;2023-02-25T17:29:18;7.1;44.3
78467;SHT31;67759;51.972;5.650;2023-02-25T17:31:50;7.0;43.3
78467;SHT31;67759;51.972;5.650;2023-02-25T17:34:27;6.9;44.9
78467;SHT31;67759;51.972;5.650;2023-02-25T17:37:02;6.8;46.3
78467;SHT31;67759;51.972;5.650;2023-02-25T17:39:33;6.8;43.9
78467;SHT31;67759;51.972;5.650;2023-02-25T17:42:31;6.7;47.2